OIBL  Bandar Lengeh  Airport

Bandar Lengeh, Iran

Add Bookmark
ICAO OIBL
IATA BDH
Type Airport
Status Operational
Latitude
26° 31' 55" N
26.532000
Longitude
54° 49' 29" E
54.824799
Local (DST + 5) UTC (GMT + 4)
Apr 27, 2015 09:32 Apr 27, 2015 17:02
Sunrise-Sunset Local UTC
Begin Civil Twilight 05:50 01:20
Sunrise 06:14 01:44
Sunset 07:21 14:51
End Civil Twilight 07:46 15:16
VFR
VFR
MVFR
MVFR
IFR
VFR
LIFR
VFR
Unknown
Unavailable

Current Weather

METAR Observed MVFR
OIBL 271600Z 25006KT 5000 HZ NSC 28/16 Q1008 Mon, Apr 27, 2015 @ 16:00 UTC
(1 Hour, 2 Minutes ago)
Marginal Visual Flight Rules
Wind Visibility Conditions
250° at 6 knots (11 kph) 5,005 m
  • Haze
Temperatures Readings Precipitation
Current Temp
28°C
82°F
Dewpoint
16°C
61°F
Heat Index
28°C
82°
Humidity 48%
Altimeter 29.76" Hg
Sea Level Pressure 1,008 mb
Field Elevation
14 m
46 ft
None Recorded

Additional weather within a 92.6km radius of OIBL

Map ICAO Location
OIBS 74.8km S/SW (202°)
OIBA 75.9km S/SE (164°)
VFR
VFR
MVFR
MVFR
IFR
VFR
LIFR
VFR
Unknown
Unavailable
-
-

CheckWX.com is intended as a tool to help pilots better visualize weather data. It is not intended as a substitute for an official weather briefing obtained from a Flight Service Station. CheckWX.com does not meet the FAA requirements for an official pre-flight weather briefing. Therefore, it's important that pilots still call and obtain an official FSS pre-flight weather briefing.

© 2007-2015 CheckWX.com
17:02:54 UTC